Time;durP1;ratioP1;P1;durP2;ratioP2;P2;SDS_P1;SDS_P2;PMS_P1;PMS_P2;Temp;Humidity;BMP_temperature;BMP_pressure;BME280_temperature;BME280_humidity;BME280_pressure;Samples;Min_cycle;Max_cycle;Signal;HPM_P1;HPM_P2
2021/01/13 00:01:38;;;;;;;7.80;4.17;;;5.20;92.60;;;;;;5052111;28;20733;-57
2021/01/13 00:04:05;;;;;;;8.93;3.87;;;5.30;92.60;;;;;;5052336;28;20649;-51
2021/01/13 00:06:33;;;;;;;7.57;5.00;;;5.20;92.60;;;;;;5050786;28;20773;-50
2021/01/13 00:09:00;;;;;;;6.60;4.90;;;5.20;92.70;;;;;;5050993;28;20764;-52
2021/01/13 00:11:27;;;;;;;13.33;4.40;;;5.10;92.70;;;;;;5049196;28;20658;-51
2021/01/13 00:13:54;;;;;;;8.27;3.80;;;5.10;92.80;;;;;;5047516;28;20690;-52
2021/01/13 00:16:21;;;;;;;7.97;4.70;;;5.10;92.80;;;;;;5047773;28;20658;-52
2021/01/13 00:18:48;;;;;;;3.83;3.10;;;5.00;92.90;;;;;;5048965;28;21033;-52
2021/01/13 00:21:15;;;;;;;6.07;3.40;;;4.90;93.20;;;;;;5048355;28;20658;-52
2021/01/13 00:23:42;;;;;;;8.03;4.90;;;4.80;93.40;;;;;;5048154;28;20688;-52
2021/01/13 00:26:15;;;;;;;6.03;3.70;;;4.70;93.50;;;;;;5049049;28;20705;-52
2021/01/13 00:28:41;;;;;;;13.70;5.30;;;4.60;93.80;;;;;;5048849;28;21226;-50
2021/01/13 00:31:08;;;;;;;5.30;3.70;;;4.60;94.00;;;;;;5050745;28;21048;-53
2021/01/13 00:33:35;;;;;;;12.10;4.03;;;4.60;94.00;;;;;;5050326;28;20697;-51
2021/01/13 00:36:02;;;;;;;8.30;5.10;;;4.60;94.30;;;;;;5050692;28;20650;-49
2021/01/13 00:38:28;;;;;;;7.83;4.57;;;4.60;94.10;;;;;;5050403;28;20634;-50
2021/01/13 00:40:55;;;;;;;6.87;4.60;;;4.60;94.20;;;;;;5050298;28;20644;-50
2021/01/13 00:43:23;;;;;;;13.10;4.60;;;4.60;94.00;;;;;;5051013;28;20621;-50
2021/01/13 00:45:49;;;;;;;8.80;4.47;;;4.70;93.90;;;;;;5049088;28;21190;-51
2021/01/13 00:48:16;;;;;;;7.90;4.17;;;4.70;93.70;;;;;;5049387;28;20670;-51
2021/01/13 00:50:43;;;;;;;8.83;4.70;;;4.70;93.70;;;;;;5048708;28;20672;-50
2021/01/13 00:53:10;;;;;;;8.73;4.47;;;4.70;93.70;;;;;;5049343;28;21185;-51
2021/01/13 00:55:36;;;;;;;11.20;6.13;;;4.70;93.70;;;;;;5049399;28;20649;-52
2021/01/13 00:58:03;;;;;;;10.87;5.37;;;4.70;93.70;;;;;;5049588;28;20653;-50
2021/01/13 01:00:31;;;;;;;10.63;4.33;;;4.70;93.70;;;;;;5049556;28;20691;-51
2021/01/13 01:02:57;;;;;;;6.77;4.13;;;4.70;93.70;;;;;;5052297;28;20771;-51
2021/01/13 01:05:24;;;;;;;6.03;3.90;;;4.70;93.70;;;;;;5053874;28;20700;-50
2021/01/13 01:07:51;;;;;;;8.60;5.33;;;4.70;93.70;;;;;;5053795;28;20223;-51
2021/01/13 01:10:19;;;;;;;11.97;5.00;;;4.60;93.60;;;;;;5054275;28;20701;-51
2021/01/13 01:12:46;;;;;;;5.40;4.07;;;4.60;93.80;;;;;;5054681;28;20688;-50
2021/01/13 01:15:13;;;;;;;8.70;4.03;;;4.50;93.90;;;;;;5053948;28;20223;-51
2021/01/13 01:17:41;;;;;;;6.17;4.90;;;4.50;93.90;;;;;;5054407;28;20652;-50
2021/01/13 01:20:08;;;;;;;6.10;3.70;;;4.50;94.20;;;;;;5053945;28;20729;-51
2021/01/13 01:22:35;;;;;;;8.43;4.20;;;4.50;93.80;;;;;;5053764;28;20668;-52
2021/01/13 01:25:02;;;;;;;9.23;4.20;;;4.50;93.90;;;;;;5052947;28;20709;-51
2021/01/13 01:27:29;;;;;;;9.97;4.27;;;4.50;93.90;;;;;;5051702;28;20668;-51
2021/01/13 01:29:56;;;;;;;5.80;4.20;;;4.50;93.90;;;;;;5053137;28;21006;-52
2021/01/13 01:32:28;;;;;;;6.00;4.20;;;4.50;93.90;;;;;;5052759;28;20668;-50
2021/01/13 01:34:55;;;;;;;7.00;4.90;;;4.50;93.90;;;;;;5052578;28;21038;-50
2021/01/13 01:37:22;;;;;;;7.87;4.67;;;4.50;93.80;;;;;;5052207;28;21018;-50
2021/01/13 01:39:49;;;;;;;12.97;4.43;;;4.50;93.80;;;;;;5052250;28;20641;-51
2021/01/13 01:42:16;;;;;;;9.07;4.60;;;4.50;93.80;;;;;;5052572;28;20657;-51
2021/01/13 01:44:43;;;;;;;8.13;4.40;;;4.40;93.80;;;;;;5051343;28;20690;-51
2021/01/13 01:47:10;;;;;;;13.97;6.20;;;4.40;93.80;;;;;;5052483;28;20925;-51
2021/01/13 01:49:36;;;;;;;8.18;4.13;;;4.30;94.00;;;;;;5032750;28;20773;-51
2021/01/13 01:52:10;;;;;;;4.30;3.40;;;4.30;94.10;;;;;;5052179;28;20224;-51
2021/01/13 01:54:37;;;;;;;10.35;5.40;;;4.30;94.10;;;;;;5052378;28;20259;-51
2021/01/13 01:57:04;;;;;;;12.97;5.17;;;4.30;94.10;;;;;;5052958;28;20255;-51
2021/01/13 01:59:42;;;;;;;6.23;4.33;;;4.30;94.10;;;;;;5051955;28;20703;-50
2021/01/13 02:02:09;;;;;;;8.38;3.75;;;4.30;94.10;;;;;;5032919;28;20669;-50
2021/01/13 02:04:36;;;;;;;7.90;5.00;;;4.30;94.10;;;;;;5032206;28;20228;-51
2021/01/13 02:07:28;;;;;;;5.70;4.45;;;4.30;94.10;;;;;;5032476;28;20694;-51
2021/01/13 02:09:54;;;;;;;11.05;4.55;;;4.30;94.10;;;;;;5032380;28;20260;-51
2021/01/13 02:12:27;;;;;;;6.18;3.78;;;4.20;94.10;;;;;;5032255;28;20236;-50
2021/01/13 02:14:54;;;;;;;12.43;4.93;;;4.20;94.20;;;;;;5031026;28;20262;-50
2021/01/13 02:17:28;;;;;;;12.67;5.30;;;4.20;94.30;;;;;;5032319;28;21049;-50
2021/01/13 02:20:09;;;;;;;6.97;4.07;;;4.20;94.60;;;;;;5034461;28;20714;-49
2021/01/13 02:22:54;;;;;;;11.47;5.10;;;4.20;94.40;;;;;;5051863;28;21247;-51
2021/01/13 02:26:04;;;;;;;6.15;4.70;;;4.10;94.30;;;;;;5051204;28;20709;-50
2021/01/13 02:28:32;;;;;;;3.70;3.33;;;4.10;94.60;;;;;;5036810;28;20365;-51
2021/01/13 02:31:25;;;;;;;6.83;4.20;;;4.10;94.40;;;;;;5032030;28;20696;-50
2021/01/13 02:33:53;;;;;;;9.77;3.53;;;4.20;94.50;;;;;;5049851;28;20650;-50
2021/01/13 02:36:21;;;;;;;4.95;3.75;;;4.20;94.40;;;;;;5051419;28;20654;-51
2021/01/13 02:38:49;;;;;;;7.90;4.28;;;4.20;94.40;;;;;;5051818;28;20239;-51
2021/01/13 02:41:17;;;;;;;7.37;4.20;;;4.10;94.20;;;;;;5052079;28;20204;-51
2021/01/13 02:43:52;;;;;;;9.70;4.07;;;4.10;94.30;;;;;;5051373;28;20697;-51
2021/01/13 02:46:23;;;;;;;4.13;3.63;;;4.00;94.50;;;;;;5051650;28;20697;-51
2021/01/13 02:48:49;;;;;;;3.70;3.07;;;4.00;94.60;;;;;;5052191;28;20641;-51
2021/01/13 02:51:21;;;;;;;6.00;3.60;;;4.00;94.60;;;;;;5052239;28;21204;-51
2021/01/13 02:53:57;;;;;;;8.98;3.10;;;4.00;94.50;;;;;;5051254;28;20293;-51
2021/01/13 02:56:40;;;;;;;5.80;3.65;;;4.00;94.60;;;;;;5051479;28;20234;-50
2021/01/13 02:59:09;;;;;;;12.27;3.67;;;4.00;95.00;;;;;;5051994;28;20215;-51
2021/01/13 03:01:41;;;;;;;7.88;3.90;;;3.90;94.70;;;;;;5051665;28;20219;-51
2021/01/13 03:04:08;;;;;;;6.60;3.38;;;3.90;94.90;;;;;;5051327;28;20247;-51
2021/01/13 03:06:40;;;;;;;5.15;3.53;;;3.90;94.90;;;;;;5050996;28;20215;-52
2021/01/13 03:09:08;;;;;;;8.50;3.92;;;4.00;94.90;;;;;;5051529;28;20570;-51
2021/01/13 03:11:35;;;;;;;5.60;3.13;;;4.00;94.80;;;;;;5050933;28;20596;-51
2021/01/13 03:14:11;;;;;;;3.10;2.50;;;4.00;94.90;;;;;;5050442;28;20700;-51
2021/01/13 03:16:40;;;;;;;4.05;2.75;;;4.00;94.90;;;;;;5049947;28;20653;-51
2021/01/13 03:19:16;;;;;;;4.38;3.20;;;4.00;94.80;;;;;;5051011;28;20242;-51
2021/01/13 03:21:47;;;;;;;9.93;4.20;;;4.00;94.80;;;;;;5050793;28;20204;-51
2021/01/13 03:24:15;;;;;;;9.10;4.23;;;4.00;94.70;;;;;;5051505;28;20672;-51
2021/01/13 03:26:46;;;;;;;10.93;3.45;;;4.00;94.60;;;;;;5051345;28;20693;-52
2021/01/13 03:29:21;;;;;;;7.13;3.63;;;4.00;94.90;;;;;;5051138;28;20215;-50
2021/01/13 03:32:05;;;;;;;9.00;3.23;;;4.00;94.90;;;;;;5051351;28;20633;-52
2021/01/13 03:34:33;;;;;;;7.43;3.83;;;4.00;94.60;;;;;;5051031;28;21020;-51
2021/01/13 03:37:16;;;;;;;10.00;3.80;;;4.10;94.50;;;;;;5050485;28;20626;-50
2021/01/13 03:39:43;;;;;;;6.83;2.83;;;4.00;94.50;;;;;;5051227;28;21214;-51
2021/01/13 03:42:11;;;;;;;3.30;3.00;;;4.10;94.60;;;;;;5051014;28;20656;-51
2021/01/13 03:44:40;;;;;;;5.33;3.93;;;4.10;94.50;;;;;;5050543;28;20337;-51
2021/01/13 03:47:53;;;;;;;8.10;4.22;;;4.10;94.40;;;;;;5050449;28;20693;-51
2021/01/13 03:50:21;;;;;;;7.70;4.30;;;4.10;94.30;;;;;;5034002;28;20581;-51
2021/01/13 03:52:58;;;;;;;4.87;3.83;;;4.20;94.30;;;;;;5052418;28;20684;-50
2021/01/13 03:55:26;;;;;;;7.10;4.60;;;4.20;94.20;;;;;;5051105;28;21241;-51
2021/01/13 03:58:41;;;;;;;10.83;3.40;;;4.10;94.10;;;;;;5050152;28;20218;-51
2021/01/13 04:01:41;;;;;;;5.00;4.43;;;4.10;94.20;;;;;;5030362;28;20631;-50
2021/01/13 04:04:37;;;;;;;10.18;4.65;;;4.00;94.10;;;;;;5030219;28;20675;-50
2021/01/13 04:07:04;;;;;;;4.33;3.73;;;3.90;94.30;;;;;;5037063;28;20243;-51
2021/01/13 04:09:32;;;;;;;9.87;4.40;;;3.90;94.50;;;;;;5050517;28;20696;-51
2021/01/13 04:12:07;;;;;;;5.30;4.57;;;3.80;94.40;;;;;;5050321;28;20695;-51
2021/01/13 04:14:50;;;;;;;5.63;4.43;;;3.80;94.50;;;;;;5049787;28;20715;-50
2021/01/13 04:17:18;;;;;;;7.45;4.65;;;3.70;94.50;;;;;;5050331;28;20629;-51
2021/01/13 04:19:45;;;;;;;8.40;4.43;;;3.70;94.60;;;;;;5050295;28;20199;-51
2021/01/13 04:22:13;;;;;;;13.23;4.77;;;3.60;94.70;;;;;;5050150;28;20302;-49
2021/01/13 04:24:41;;;;;;;8.45;4.82;;;3.70;94.80;;;;;;5049525;28;20839;-50
2021/01/13 04:27:10;;;;;;;13.75;4.50;;;3.70;94.80;;;;;;5093554;22;20272;-60
2021/01/13 04:29:37;;;;;;;13.57;5.47;;;3.60;94.50;;;;;;5089989;28;20226;-57
2021/01/13 04:32:05;;;;;;;7.72;4.97;;;3.60;94.50;;;;;;5085213;28;20489;-58
2021/01/13 04:34:33;;;;;;;8.48;4.57;;;3.60;94.50;;;;;;5071843;28;20233;-58
2021/01/13 04:36:59;;;;;;;10.37;5.03;;;3.60;94.50;;;;;;5081610;28;20277;-58
2021/01/13 04:39:26;;;;;;;12.20;4.83;;;3.60;94.70;;;;;;5091420;28;20656;-57
2021/01/13 04:41:59;;;;;;;7.15;4.38;;;3.60;94.70;;;;;;5091421;28;20655;-58
2021/01/13 04:44:30;;;;;;;7.27;4.17;;;3.60;94.60;;;;;;5086277;28;20225;-56
2021/01/13 04:47:03;;;;;;;5.67;4.50;;;3.60;94.60;;;;;;5089947;28;20695;-59
2021/01/13 04:49:29;;;;;;;10.65;4.18;;;3.70;94.80;;;;;;5091539;28;20681;-58
2021/01/13 04:51:58;;;;;;;8.13;4.87;;;3.60;94.40;;;;;;5089272;28;20243;-57
2021/01/13 04:54:25;;;;;;;8.33;5.00;;;3.60;94.30;;;;;;5091304;28;21068;-58
2021/01/13 04:57:16;;;;;;;8.35;4.88;;;3.50;94.40;;;;;;5090910;28;20676;-57
2021/01/13 05:00:13;;;;;;;8.15;4.72;;;3.50;94.60;;;;;;5091117;28;20209;-59
2021/01/13 05:03:06;;;;;;;7.30;5.22;;;3.40;94.60;;;;;;5078807;28;20229;-58
2021/01/13 05:05:32;;;;;;;9.57;4.38;;;3.50;94.70;;;;;;5071311;28;20227;-60
2021/01/13 05:08:30;;;;;;;8.27;4.43;;;3.50;94.70;;;;;;5070689;28;20520;-57
2021/01/13 05:11:04;;;;;;;6.60;4.07;;;3.50;94.60;;;;;;5071208;28;20629;-60
2021/01/13 05:13:35;;;;;;;11.05;4.85;;;3.50;94.60;;;;;;5087992;28;20233;-59
2021/01/13 05:16:08;;;;;;;11.18;4.25;;;3.50;94.50;;;;;;5091098;28;20233;-57
2021/01/13 05:18:52;;;;;;;5.50;4.47;;;3.60;94.40;;;;;;5078044;28;20211;-59
2021/01/13 05:21:20;;;;;;;8.27;3.55;;;3.50;94.20;;;;;;5079741;28;20354;-59
2021/01/13 05:23:48;;;;;;;16.10;4.18;;;3.50;94.30;;;;;;5075926;28;20235;-58
2021/01/13 05:26:17;;;;;;;6.05;3.65;;;3.50;94.30;;;;;;5082542;28;20269;-58
2021/01/13 05:29:17;;;;;;;3.73;3.43;;;3.50;94.30;;;;;;5090389;28;20229;-58
2021/01/13 05:31:44;;;;;;;7.85;3.60;;;3.50;94.30;;;;;;5083424;28;20716;-58
2021/01/13 05:34:10;;;;;;;5.10;3.53;;;3.50;94.30;;;;;;5090474;28;20538;-58
2021/01/13 05:36:40;;;;;;;13.95;4.32;;;3.50;94.30;;;;;;5079540;28;20279;-58
2021/01/13 05:39:10;;;;;;;9.15;4.80;;;3.50;94.30;;;;;;5090910;28;20241;-60
2021/01/13 05:41:37;;;;;;;5.20;3.90;;;3.60;94.30;;;;;;5090572;28;20206;-60
2021/01/13 05:44:05;;;;;;;4.95;4.18;;;3.60;94.20;;;;;;5087447;28;20664;-59
2021/01/13 05:46:42;;;;;;;4.32;3.95;;;3.60;94.20;;;;;;5073270;28;20252;-59
2021/01/13 05:49:09;;;;;;;8.53;3.67;;;3.60;94.10;;;;;;5084644;28;20216;-60
2021/01/13 05:51:36;;;;;;;12.32;6.18;;;3.60;94.10;;;;;;5093728;28;20630;-60
2021/01/13 05:54:04;;;;;;;7.97;4.35;;;3.60;94.10;;;;;;5094365;28;20233;-60
2021/01/13 05:56:35;;;;;;;13.43;4.82;;;3.60;94.10;;;;;;5094114;28;20307;-59
2021/01/13 05:59:02;;;;;;;8.10;5.13;;;3.60;94.10;;;;;;5094068;28;20301;-59
2021/01/13 06:01:35;;;;;;;9.18;4.60;;;3.60;94.10;;;;;;5093264;28;20199;-61
2021/01/13 06:04:04;;;;;;;8.38;5.25;;;3.60;94.10;;;;;;5093845;28;20686;-59
2021/01/13 06:06:34;;;;;;;5.20;4.53;;;3.60;94.00;;;;;;5091836;28;20238;-59
2021/01/13 06:09:01;;;;;;;8.88;3.10;;;3.60;94.00;;;;;;5087112;28;20656;-58
2021/01/13 06:11:28;;;;;;;8.90;3.17;;;3.60;94.10;;;;;;5094397;28;20194;-59
2021/01/13 06:13:56;;;;;;;5.05;3.90;;;3.70;94.10;;;;;;5086458;28;20206;-59
2021/01/13 06:16:23;;;;;;;6.00;4.13;;;3.70;94.10;;;;;;5093808;28;20241;-58
2021/01/13 06:18:50;;;;;;;4.57;2.87;;;3.70;94.00;;;;;;5080560;28;20671;-59
2021/01/13 06:21:18;;;;;;;12.67;3.57;;;3.70;94.00;;;;;;5092736;28;20624;-59
2021/01/13 06:23:48;;;;;;;5.60;3.85;;;3.70;93.80;;;;;;5093448;28;20628;-57
2021/01/13 06:26:15;;;;;;;7.70;3.90;;;3.70;93.80;;;;;;5078356;28;20729;-60
2021/01/13 06:29:26;;;;;;;10.17;5.13;;;3.70;93.90;;;;;;5089560;28;20734;-59
2021/01/13 06:31:57;;;;;;;9.30;3.90;;;3.70;94.10;;;;;;5088708;28;21037;-58
2021/01/13 06:34:27;;;;;;;7.10;3.70;;;3.80;94.00;;;;;;5091792;28;20610;-60
2021/01/13 06:37:11;;;;;;;10.47;4.70;;;3.80;93.90;;;;;;5093576;28;20680;-59
2021/01/13 06:39:37;;;;;;;9.07;4.37;;;3.80;93.90;;;;;;5089885;28;20628;-57
2021/01/13 06:42:05;;;;;;;7.32;4.57;;;3.90;93.70;;;;;;5083604;28;20667;-57
2021/01/13 06:44:43;;;;;;;8.20;3.97;;;3.90;93.60;;;;;;5093691;28;20713;-58
2021/01/13 06:47:10;;;;;;;10.18;4.53;;;3.90;93.60;;;;;;5090937;28;20700;-58
2021/01/13 06:49:37;;;;;;;6.90;3.72;;;3.90;93.50;;;;;;5093496;28;20227;-57
2021/01/13 06:52:04;;;;;;;5.20;3.10;;;3.90;93.50;;;;;;5093278;28;20255;-58
2021/01/13 06:54:31;;;;;;;9.50;4.50;;;3.90;93.40;;;;;;5078948;28;20649;-58
2021/01/13 06:56:59;;;;;;;4.05;3.60;;;3.90;93.40;;;;;;5088691;28;20686;-57
2021/01/13 06:59:26;;;;;;;6.97;3.23;;;4.00;93.40;;;;;;5092515;28;20572;-59
2021/01/13 07:01:54;;;;;;;6.07;4.10;;;3.90;93.30;;;;;;5092793;28;20652;-59
2021/01/13 07:04:21;;;;;;;10.10;3.90;;;4.00;93.50;;;;;;5092748;28;20628;-58
2021/01/13 07:06:58;;;;;;;5.37;2.37;;;4.00;93.70;;;;;;5075819;28;20742;-57
2021/01/13 07:09:35;;;;;;;8.43;3.58;;;3.90;93.20;;;;;;5074959;28;21226;-57
2021/01/13 07:12:08;;;;;;;9.83;4.13;;;4.00;93.20;;;;;;5076935;28;20191;-58
2021/01/13 07:14:39;;;;;;;9.10;3.65;;;4.00;93.10;;;;;;5074112;28;20649;-57
2021/01/13 07:17:10;;;;;;;4.20;3.27;;;3.90;93.10;;;;;;5084889;28;20246;-57
2021/01/13 07:19:38;;;;;;;7.75;3.42;;;4.00;93.30;;;;;;5072914;28;20656;-57
2021/01/13 07:22:05;;;;;;;7.75;4.30;;;4.00;93.20;;;;;;5088252;28;20206;-57
2021/01/13 07:24:32;;;;;;;5.85;2.78;;;3.90;93.10;;;;;;5092117;28;20234;-58
2021/01/13 07:26:59;;;;;;;4.60;3.87;;;3.90;93.20;;;;;;5090438;28;20246;-59
2021/01/13 07:29:26;;;;;;;9.18;4.43;;;3.90;93.20;;;;;;5092931;28;20995;-57
2021/01/13 07:31:55;;;;;;;10.50;5.90;;;3.90;93.20;;;;;;5092767;28;20271;-59
2021/01/13 07:34:26;;;;;;;10.17;3.07;;;3.90;93.30;;;;;;5081949;28;20258;-59
2021/01/13 07:36:58;;;;;;;6.53;3.03;;;3.90;93.20;;;;;;5072083;28;20684;-58
2021/01/13 07:39:26;;;;;;;4.13;2.77;;;3.90;93.30;;;;;;5087553;28;20279;-58
2021/01/13 07:42:17;;;;;;;8.13;3.77;;;3.90;93.30;;;;;;5092374;28;20671;-60
2021/01/13 07:44:44;;;;;;;7.70;3.40;;;3.90;93.50;;;;;;5092394;28;20645;-58
2021/01/13 07:47:44;;;;;;;3.30;2.47;;;3.90;93.30;;;;;;5090364;28;20667;-59
2021/01/13 07:50:13;;;;;;;8.00;3.90;;;3.90;93.20;;;;;;5092084;28;21191;-57
2021/01/13 07:52:43;;;;;;;14.03;3.80;;;3.90;93.20;;;;;;5092539;28;20623;-59
2021/01/13 07:55:15;;;;;;;4.40;3.43;;;3.90;93.30;;;;;;5092124;28;20903;-58
2021/01/13 07:57:45;;;;;;;5.17;3.73;;;3.90;93.30;;;;;;5091897;28;20659;-59
2021/01/13 08:00:23;;;;;;;7.43;4.00;;;3.90;93.50;;;;;;5091971;28;20651;-58
2021/01/13 08:03:33;;;;;;;6.10;3.80;;;3.90;93.50;;;;;;5092222;28;20647;-57
2021/01/13 08:06:30;;;;;;;6.50;4.30;;;3.90;93.50;;;;;;5091625;28;20676;-58
2021/01/13 08:09:17;;;;;;;13.40;5.40;;;3.90;93.40;;;;;;5092496;28;20665;-58
2021/01/13 08:12:31;;;;;;;7.57;3.30;;;3.90;93.50;;;;;;5074243;28;20652;-59
2021/01/13 08:15:27;;;;;;;5.87;4.20;;;3.90;93.70;;;;;;5092217;28;20209;-57
2021/01/13 08:18:49;;;;;;;7.13;5.40;;;3.90;93.90;;;;;;5092355;28;21197;-58
2021/01/13 08:21:26;;;;;;;6.00;4.60;;;4.00;93.60;;;;;;5083362;28;20628;-57
2021/01/13 08:24:03;;;;;;;8.20;5.10;;;4.10;93.60;;;;;;5093105;28;20616;-57
2021/01/13 08:26:31;;;;;;;12.83;5.70;;;4.10;93.40;;;;;;5092720;28;21011;-57
2021/01/13 08:29:01;;;;;;;9.90;5.40;;;4.10;93.30;;;;;;5092502;28;20639;-58
2021/01/13 08:31:28;;;;;;;5.97;3.83;;;4.10;93.30;;;;;;5104015;28;20620;-59
2021/01/13 08:34:06;;;;;;;7.00;4.80;;;4.20;93.30;;;;;;5098999;28;20965;-57
2021/01/13 08:36:33;;;;;;;10.30;4.00;;;4.20;93.10;;;;;;5091929;28;20651;-57
2021/01/13 08:39:08;;;;;;;5.60;5.00;;;4.20;93.00;;;;;;5091452;28;20750;-58
2021/01/13 08:41:36;;;;;;;10.73;4.87;;;4.20;93.00;;;;;;5091419;28;20673;-57
2021/01/13 08:44:08;;;;;;;8.67;5.43;;;4.20;93.10;;;;;;5091590;28;21183;-58
2021/01/13 08:46:46;;;;;;;4.90;4.13;;;4.10;93.40;;;;;;5090240;28;20716;-57
2021/01/13 08:49:24;;;;;;;8.30;4.53;;;4.10;93.50;;;;;;5090536;28;20659;-57
2021/01/13 08:52:20;;;;;;;19.43;7.03;;;4.10;93.40;;;;;;5091823;28;20681;-56
2021/01/13 08:55:14;;;;;;;5.57;5.07;;;4.10;93.20;;;;;;5091352;28;21008;-58
2021/01/13 08:57:52;;;;;;;5.27;4.67;;;4.20;93.40;;;;;;5091316;28;20608;-58
2021/01/13 09:00:20;;;;;;;6.53;4.50;;;4.20;93.50;;;;;;5091011;28;20681;-58
2021/01/13 09:03:02;;;;;;;6.00;5.17;;;4.20;93.30;;;;;;5090968;28;20616;-58
2021/01/13 09:05:30;;;;;;;5.47;4.73;;;4.20;93.30;;;;;;5091869;28;20665;-57
2021/01/13 09:07:58;;;;;;;5.80;4.80;;;4.20;93.30;;;;;;5089138;28;21133;-58
2021/01/13 09:10:42;;;;;;;8.77;5.60;;;4.30;94.40;;;;;;5091152;28;20663;-58
2021/01/13 09:13:39;;;;;;;5.67;4.23;;;4.40;94.60;;;;;;5089374;28;20687;-58
2021/01/13 09:16:33;;;;;;;10.77;6.30;;;4.60;93.80;;;;;;5088891;28;20664;-58
2021/01/13 09:19:05;;;;;;;10.20;5.80;;;4.70;93.20;;;;;;5091064;28;20651;-58
2021/01/13 09:21:33;;;;;;;8.10;5.43;;;4.80;93.50;;;;;;5087522;28;20683;-58
2021/01/13 09:24:00;;;;;;;9.63;5.37;;;5.10;93.90;;;;;;5072961;28;20613;-58
2021/01/13 09:26:32;;;;;;;11.97;4.80;;;5.30;92.90;;;;;;5075022;28;20657;-58
2021/01/13 09:29:00;;;;;;;9.47;5.40;;;5.50;92.20;;;;;;5074299;28;20658;-58
2021/01/13 09:31:27;;;;;;;7.93;6.00;;;5.50;91.30;;;;;;5086211;28;21354;-56
2021/01/13 09:33:55;;;;;;;5.77;5.20;;;5.50;91.20;;;;;;5094516;28;20645;-58
2021/01/13 09:36:22;;;;;;;6.80;5.50;;;5.50;91.70;;;;;;5094665;28;20684;-58
2021/01/13 09:38:49;;;;;;;6.90;5.20;;;5.60;91.70;;;;;;5094472;28;20663;-58
2021/01/13 09:41:25;;;;;;;7.50;4.50;;;5.70;91.70;;;;;;5095247;28;21156;-58
2021/01/13 09:44:08;;;;;;;8.20;5.67;;;5.70;91.50;;;;;;5094380;28;20696;-60
2021/01/13 09:46:36;;;;;;;11.83;5.73;;;5.70;91.50;;;;;;5094223;28;20675;-56
2021/01/13 09:49:04;;;;;;;8.20;5.67;;;6.00;91.60;;;;;;5085764;28;20989;-58
2021/01/13 09:51:32;;;;;;;10.17;6.37;;;6.10;91.10;;;;;;5074039;28;20664;-57
2021/01/13 09:54:01;;;;;;;6.23;5.10;;;6.30;91.20;;;;;;5088059;28;20637;-57
2021/01/13 09:56:28;;;;;;;11.73;5.90;;;6.70;90.30;;;;;;5093887;28;21004;-58
2021/01/13 09:58:55;;;;;;;5.70;4.93;;;7.20;89.70;;;;;;5094554;28;20659;-59
2021/01/13 10:01:23;;;;;;;8.60;5.80;;;7.50;86.10;;;;;;5090672;28;20720;-58
2021/01/13 10:03:51;;;;;;;11.03;5.43;;;7.30;84.10;;;;;;5091768;28;20631;-57
2021/01/13 10:06:22;;;;;;;14.20;5.70;;;7.00;84.40;;;;;;5087241;28;20687;-58
2021/01/13 10:08:49;;;;;;;6.63;5.20;;;6.90;85.60;;;;;;5078206;28;20687;-59
2021/01/13 10:11:16;;;;;;;6.20;5.57;;;6.80;86.70;;;;;;5093689;28;20638;-59
2021/01/13 10:13:44;;;;;;;11.53;6.83;;;6.60;86.80;;;;;;5077877;28;20670;-60
2021/01/13 10:16:12;;;;;;;7.70;5.97;;;6.40;87.60;;;;;;5092303;28;20666;-60
2021/01/13 10:18:49;;;;;;;11.73;6.37;;;6.50;88.10;;;;;;5088377;28;20663;-62
2021/01/13 10:21:16;;;;;;;7.53;5.87;;;6.70;88.70;;;;;;5093493;28;21244;-59
2021/01/13 10:23:45;;;;;;;14.07;7.93;;;6.80;89.00;;;;;;5092044;28;20654;-58
2021/01/13 10:26:12;;;;;;;9.80;6.20;;;7.00;87.60;;;;;;5100980;22;20998;-49
2021/01/13 10:28:39;;;;;;;16.37;5.70;;;7.10;87.50;;;;;;5052149;28;20696;-51
2021/01/13 10:31:07;;;;;;;10.90;5.40;;;7.00;88.20;;;;;;5052508;28;20629;-51
2021/01/13 10:33:54;;;;;;;10.50;6.10;;;6.90;88.70;;;;;;5062303;28;20674;-49
2021/01/13 10:36:43;;;;;;;8.93;5.50;;;6.90;88.60;;;;;;5033554;28;20831;-50
2021/01/13 10:39:13;;;;;;;8.20;6.10;;;6.80;88.70;;;;;;5051515;28;20686;-50
2021/01/13 10:41:41;;;;;;;6.37;4.90;;;6.60;89.10;;;;;;5052287;28;20688;-49
2021/01/13 10:44:10;;;;;;;6.80;4.80;;;6.50;89.60;;;;;;5051505;28;21052;-48
2021/01/13 10:46:47;;;;;;;9.40;6.80;;;6.30;89.80;;;;;;5057428;28;20686;-50
2021/01/13 10:49:33;;;;;;;12.17;7.50;;;6.20;90.30;;;;;;5051166;28;20697;-50
2021/01/13 10:52:01;;;;;;;13.03;6.40;;;6.20;90.90;;;;;;5050024;28;20780;-49
2021/01/13 10:54:29;;;;;;;15.70;6.03;;;6.20;90.90;;;;;;5050733;28;20926;-49
2021/01/13 10:56:58;;;;;;;8.97;5.87;;;6.10;90.80;;;;;;5051193;28;20685;-50
2021/01/13 10:59:25;;;;;;;7.87;6.23;;;6.10;91.00;;;;;;5032353;28;20624;-51
2021/01/13 11:01:53;;;;;;;7.23;6.03;;;6.10;91.40;;;;;;5050472;28;20648;-50
2021/01/13 11:04:33;;;;;;;9.07;6.37;;;6.20;91.40;;;;;;5050771;28;20662;-49
2021/01/13 11:07:02;;;;;;;10.73;5.20;;;6.30;91.00;;;;;;5047642;28;20745;-49
2021/01/13 11:09:30;;;;;;;5.20;3.73;;;6.40;91.20;;;;;;5051629;28;20652;-48
2021/01/13 11:11:57;;;;;;;8.33;5.93;;;6.40;90.80;;;;;;5050976;28;21136;-50
2021/01/13 11:14:37;;;;;;;6.63;6.03;;;6.40;91.30;;;;;;5050692;28;20651;-51
2021/01/13 11:17:06;;;;;;;7.73;6.53;;;6.40;91.10;;;;;;5050622;28;20687;-49
2021/01/13 11:19:33;;;;;;;10.80;6.67;;;6.40;90.70;;;;;;5050302;28;20660;-50
2021/01/13 11:22:00;;;;;;;11.13;6.80;;;6.40;90.70;;;;;;5050958;28;20667;-50
2021/01/13 11:24:33;;;;;;;10.90;5.93;;;6.50;90.90;;;;;;5032836;28;20605;-49
2021/01/13 11:27:00;;;;;;;13.03;5.83;;;6.60;90.80;;;;;;5050320;28;20695;-50
2021/01/13 11:29:29;;;;;;;9.50;5.27;;;6.60;90.60;;;;;;5051029;28;20656;-49
2021/01/13 11:31:57;;;;;;;12.43;5.63;;;6.50;90.40;;;;;;5049168;28;20651;-50
2021/01/13 11:34:24;;;;;;;14.80;5.90;;;6.40;91.20;;;;;;5050204;28;20657;-50
2021/01/13 11:37:09;;;;;;;11.43;7.43;;;6.50;91.20;;;;;;5049913;28;20692;-50
2021/01/13 11:39:43;;;;;;;13.83;5.77;;;6.60;91.00;;;;;;5049611;28;20646;-49
2021/01/13 11:42:17;;;;;;;10.87;5.53;;;6.90;91.20;;;;;;5050424;28;20981;-51
2021/01/13 11:44:50;;;;;;;8.03;5.53;;;7.60;90.70;;;;;;5050253;28;20977;-49
2021/01/13 11:47:19;;;;;;;7.10;5.50;;;8.60;87.60;;;;;;5048949;28;20693;-49
2021/01/13 11:49:50;;;;;;;5.20;4.63;;;9.40;82.70;;;;;;5050347;28;20610;-50
2021/01/13 11:52:17;;;;;;;7.47;4.57;;;9.90;77.60;;;;;;5050264;28;20634;-49
2021/01/13 11:54:48;;;;;;;13.43;5.50;;;10.30;75.50;;;;;;5048742;28;20626;-49
2021/01/13 11:57:23;;;;;;;10.07;5.50;;;10.50;71.70;;;;;;5049912;28;20686;-48
2021/01/13 11:59:50;;;;;;;6.97;5.00;;;10.60;69.40;;;;;;5049904;28;20660;-50
2021/01/13 12:02:19;;;;;;;5.40;4.50;;;10.30;69.00;;;;;;5050179;28;21181;-49
2021/01/13 12:04:46;;;;;;;7.30;4.53;;;10.10;68.80;;;;;;5049064;28;21126;-50
2021/01/13 12:07:13;;;;;;;11.30;3.90;;;9.80;71.10;;;;;;5049761;28;20661;-50
2021/01/13 12:09:39;;;;;;;5.60;4.57;;;9.30;71.00;;;;;;5049447;28;20662;-50
2021/01/13 12:12:07;;;;;;;7.43;4.97;;;8.90;72.80;;;;;;5049358;28;20646;-50
2021/01/13 12:14:41;;;;;;;6.83;4.83;;;8.70;75.10;;;;;;5049177;28;20729;-49
2021/01/13 12:17:08;;;;;;;5.97;4.47;;;8.80;76.10;;;;;;5035898;28;20654;-50
2021/01/13 12:19:41;;;;;;;11.90;4.07;;;8.80;76.60;;;;;;5048663;28;20672;-50
2021/01/13 12:22:08;;;;;;;4.70;3.23;;;8.70;76.90;;;;;;5031005;28;20636;-49
2021/01/13 12:24:39;;;;;;;7.00;3.40;;;8.80;74.90;;;;;;5048769;28;20657;-50
2021/01/13 12:27:26;;;;;;;9.20;4.30;;;8.90;74.40;;;;;;5048218;28;20662;-50
2021/01/13 12:30:12;;;;;;;4.10;2.23;;;9.00;76.40;;;;;;5049082;28;20764;-50
2021/01/13 12:32:39;;;;;;;9.13;2.13;;;8.80;72.40;;;;;;5048487;28;20696;-50
2021/01/13 12:35:07;;;;;;;4.83;1.87;;;8.70;72.50;;;;;;5048899;28;20650;-50
2021/01/13 12:37:45;;;;;;;7.43;2.50;;;8.50;71.20;;;;;;5048949;28;20710;-48
2021/01/13 12:40:12;;;;;;;5.80;2.30;;;8.40;73.20;;;;;;5049202;28;20657;-48
2021/01/13 12:42:40;;;;;;;4.80;2.63;;;8.40;73.00;;;;;;5048981;28;20672;-47
2021/01/13 12:45:08;;;;;;;6.43;2.20;;;8.30;72.60;;;;;;5049750;28;20782;-48
2021/01/13 12:47:34;;;;;;;6.40;3.40;;;8.10;73.20;;;;;;5049302;28;20686;-49
2021/01/13 12:50:02;;;;;;;4.53;2.40;;;8.00;74.50;;;;;;5049433;28;20665;-50
2021/01/13 12:52:29;;;;;;;4.90;2.70;;;7.70;75.00;;;;;;5049549;28;20618;-50
2021/01/13 12:54:55;;;;;;;8.83;3.33;;;7.70;76.70;;;;;;5049359;28;20625;-49
2021/01/13 12:57:22;;;;;;;4.93;2.53;;;7.70;79.10;;;;;;5048721;28;21210;-49
2021/01/13 12:59:50;;;;;;;4.87;3.00;;;7.60;78.20;;;;;;5048931;28;20653;-50
2021/01/13 13:02:17;;;;;;;4.00;3.60;;;7.50;78.40;;;;;;5048911;28;21104;-50
2021/01/13 13:04:43;;;;;;;8.73;3.90;;;7.60;80.00;;;;;;5048948;28;20644;-49
2021/01/13 13:07:10;;;;;;;7.07;3.40;;;7.60;80.40;;;;;;5048367;28;21248;-50
2021/01/13 13:09:37;;;;;;;5.10;3.03;;;7.50;79.20;;;;;;5048629;28;20685;-50
2021/01/13 13:12:04;;;;;;;9.17;4.33;;;7.50;79.00;;;;;;5049229;28;21184;-50
2021/01/13 13:14:31;;;;;;;3.70;2.77;;;7.40;79.90;;;;;;5049315;28;20649;-50
2021/01/13 13:17:00;;;;;;;2.97;2.40;;;7.40;80.70;;;;;;5049013;28;21058;-50
2021/01/13 13:19:27;;;;;;;9.20;4.07;;;7.40;80.80;;;;;;5048702;28;20657;-51
2021/01/13 13:21:54;;;;;;;7.37;4.20;;;7.40;80.70;;;;;;5047814;28;20669;-51